sensor_id;sensor_type;location;lat;lon;timestamp;pressure;altitude;pressure_sealevel;temperature;humidity
10921;BME280;5513;50.580;8.818;2022-11-15T00:01:30;98783.88;;;9.67;100.00
10921;BME280;5513;50.580;8.818;2022-11-15T00:04:00;98774.03;;;9.69;100.00
10921;BME280;5513;50.580;8.818;2022-11-15T00:06:29;98782.09;;;9.68;100.00
10921;BME280;5513;50.580;8.818;2022-11-15T00:08:58;98778.59;;;9.67;100.00
10921;BME280;5513;50.580;8.818;2022-11-15T00:11:28;98774.88;;;9.57;100.00
10921;BME280;5513;50.580;8.818;2022-11-15T00:14:00;98773.69;;;9.61;100.00
10921;BME280;5513;50.580;8.818;2022-11-15T00:16:30;98756.25;;;9.59;100.00
10921;BME280;5513;50.580;8.818;2022-11-15T00:18:58;98773.69;;;9.61;100.00
10921;BME280;5513;50.580;8.818;2022-11-15T00:21:27;98764.41;;;9.56;100.00
10921;BME280;5513;50.580;8.818;2022-11-15T00:23:55;98765.31;;;9.55;100.00
10921;BME280;5513;50.580;8.818;2022-11-15T00:26:24;98769.88;;;9.53;100.00
10921;BME280;5513;50.580;8.818;2022-11-15T00:28:53;98768.19;;;9.52;100.00
10921;BME280;5513;50.580;8.818;2022-11-15T00:31:23;98769.97;;;9.51;100.00
10921;BME280;5513;50.580;8.818;2022-11-15T00:33:53;98774.19;;;9.54;100.00
10921;BME280;5513;50.580;8.818;2022-11-15T00:36:23;98763.44;;;9.57;100.00
10921;BME280;5513;50.580;8.818;2022-11-15T00:38:51;98763.53;;;9.55;100.00
10921;BME280;5513;50.580;8.818;2022-11-15T00:41:19;98764.41;;;9.56;100.00
10921;BME280;5513;50.580;8.818;2022-11-15T00:43:48;98761.94;;;9.53;100.00
10921;BME280;5513;50.580;8.818;2022-11-15T00:46:17;98764.28;;;9.57;100.00
10921;BME280;5513;50.580;8.818;2022-11-15T00:48:47;98756.66;;;9.53;100.00
10921;BME280;5513;50.580;8.818;2022-11-15T00:51:15;98754.31;;;9.48;100.00
10921;BME280;5513;50.580;8.818;2022-11-15T00:53:45;98751.25;;;9.54;100.00
10921;BME280;5513;50.580;8.818;2022-11-15T00:56:15;98741.75;;;9.52;100.00
10921;BME280;5513;50.580;8.818;2022-11-15T00:58:45;98750.84;;;9.48;100.00
10921;BME280;5513;50.580;8.818;2022-11-15T01:01:18;98744.28;;;9.53;100.00
10921;BME280;5513;50.580;8.818;2022-11-15T01:03:48;98754.47;;;9.59;100.00
10921;BME280;5513;50.580;8.818;2022-11-15T01:06:16;98747.81;;;9.66;100.00
10921;BME280;5513;50.580;8.818;2022-11-15T01:08:45;98744.63;;;9.74;100.00
10921;BME280;5513;50.580;8.818;2022-11-15T01:11:13;98737.75;;;9.71;100.00
10921;BME280;5513;50.580;8.818;2022-11-15T01:13:41;98737.47;;;9.76;100.00
10921;BME280;5513;50.580;8.818;2022-11-15T01:16:12;98733.13;;;9.75;100.00
10921;BME280;5513;50.580;8.818;2022-11-15T01:18:41;98733.53;;;9.82;100.00
10921;BME280;5513;50.580;8.818;2022-11-15T01:21:13;98733.25;;;9.86;100.00
10921;BME280;5513;50.580;8.818;2022-11-15T01:23:43;98724.69;;;9.95;100.00
10921;BME280;5513;50.580;8.818;2022-11-15T01:26:14;98723.00;;;9.94;100.00
10921;BME280;5513;50.580;8.818;2022-11-15T01:28:43;98725.31;;;9.86;100.00
10921;BME280;5513;50.580;8.818;2022-11-15T01:31:13;98735.78;;;9.75;100.00
10921;BME280;5513;50.580;8.818;2022-11-15T01:33:43;98728.34;;;9.67;100.00
10921;BME280;5513;50.580;8.818;2022-11-15T01:36:14;98733.53;;;9.82;100.00
10921;BME280;5513;50.580;8.818;2022-11-15T01:38:42;98731.94;;;9.66;100.00
10921;BME280;5513;50.580;8.818;2022-11-15T01:41:16;98724.88;;;9.67;100.00
10921;BME280;5513;50.580;8.818;2022-11-15T01:43:46;98722.97;;;9.69;100.00
10921;BME280;5513;50.580;8.818;2022-11-15T01:46:23;98725.72;;;9.67;100.00
10921;BME280;5513;50.580;8.818;2022-11-15T01:48:53;98729.94;;;9.70;100.00
10921;BME280;5513;50.580;8.818;2022-11-15T01:51:28;98728.47;;;9.66;100.00
10921;BME280;5513;50.580;8.818;2022-11-15T01:54:01;98729.81;;;9.59;100.00
10921;BME280;5513;50.580;8.818;2022-11-15T01:56:33;98735.34;;;9.68;100.00
10921;BME280;5513;50.580;8.818;2022-11-15T01:59:08;98722.16;;;9.54;100.00
10921;BME280;5513;50.580;8.818;2022-11-15T02:01:37;98715.63;;;9.60;100.00
10921;BME280;5513;50.580;8.818;2022-11-15T02:04:10;98706.75;;;9.61;100.00
10921;BME280;5513;50.580;8.818;2022-11-15T02:06:43;98697.03;;;9.61;100.00
10921;BME280;5513;50.580;8.818;2022-11-15T02:09:12;98690.78;;;9.50;100.00
10921;BME280;5513;50.580;8.818;2022-11-15T02:11:43;98696.16;;;9.48;100.00
10921;BME280;5513;50.580;8.818;2022-11-15T02:14:14;98697.66;;;9.52;100.00
10921;BME280;5513;50.580;8.818;2022-11-15T02:16:50;98698.72;;;9.50;100.00
10921;BME280;5513;50.580;8.818;2022-11-15T02:19:40;98687.91;;;9.53;100.00
10921;BME280;5513;50.580;8.818;2022-11-15T02:22:32;98684.75;;;9.60;100.00
10921;BME280;5513;50.580;8.818;2022-11-15T02:25:18;98676.94;;;9.59;100.00
10921;BME280;5513;50.580;8.818;2022-11-15T02:28:23;98681.91;;;9.63;100.00
10921;BME280;5513;50.580;8.818;2022-11-15T02:31:03;98672.16;;;9.64;100.00
10921;BME280;5513;50.580;8.818;2022-11-15T02:33:41;98679.59;;;9.59;100.00
10921;BME280;5513;50.580;8.818;2022-11-15T02:36:16;98674.41;;;9.57;100.00
10921;BME280;5513;50.580;8.818;2022-11-15T02:38:54;98675.59;;;9.66;100.00
10921;BME280;5513;50.580;8.818;2022-11-15T02:41:31;98667.50;;;9.55;100.00
10921;BME280;5513;50.580;8.818;2022-11-15T02:44:07;98664.91;;;9.67;100.00
10921;BME280;5513;50.580;8.818;2022-11-15T02:46:41;98671.13;;;9.66;100.00
10921;BME280;5513;50.580;8.818;2022-11-15T02:49:33;98677.16;;;9.68;100.00
10921;BME280;5513;50.580;8.818;2022-11-15T02:52:01;98671.88;;;9.68;100.00
10921;BME280;5513;50.580;8.818;2022-11-15T02:54:32;98666.38;;;9.71;100.00
10921;BME280;5513;50.580;8.818;2022-11-15T02:57:04;98656.53;;;9.73;100.00
10921;BME280;5513;50.580;8.818;2022-11-15T03:03:13;98660.22;;;9.71;100.00
10921;BME280;5513;50.580;8.818;2022-11-15T03:05:53;98654.00;;;9.85;100.00
10921;BME280;5513;50.580;8.818;2022-11-15T03:08:30;98662.25;;;9.80;100.00
10921;BME280;5513;50.580;8.818;2022-11-15T03:11:03;98653.06;;;9.86;100.00
10921;BME280;5513;50.580;8.818;2022-11-15T03:13:39;98642.47;;;9.86;100.00
10921;BME280;5513;50.580;8.818;2022-11-15T03:16:17;98636.63;;;9.81;100.00
10921;BME280;5513;50.580;8.818;2022-11-15T03:18:53;98638.66;;;9.90;100.00
10921;BME280;5513;50.580;8.818;2022-11-15T03:21:25;98644.38;;;9.71;100.00
10921;BME280;5513;50.580;8.818;2022-11-15T03:23:58;98644.34;;;9.84;100.00
10921;BME280;5513;50.580;8.818;2022-11-15T03:26:29;98650.06;;;10.03;100.00
10921;BME280;5513;50.580;8.818;2022-11-15T03:29:04;98651.56;;;9.94;100.00
10921;BME280;5513;50.580;8.818;2022-11-15T03:31:36;98649.56;;;9.98;100.00
10921;BME280;5513;50.580;8.818;2022-11-15T03:34:25;98646.91;;;9.98;100.00
10921;BME280;5513;50.580;8.818;2022-11-15T03:36:57;98645.97;;;9.86;100.00
10921;BME280;5513;50.580;8.818;2022-11-15T03:39:25;98642.25;;;9.89;100.00
10921;BME280;5513;50.580;8.818;2022-11-15T03:42:04;98649.97;;;9.92;100.00
10921;BME280;5513;50.580;8.818;2022-11-15T03:44:41;98649.34;;;9.88;100.00
10921;BME280;5513;50.580;8.818;2022-11-15T03:47:13;98647.22;;;9.81;100.00
10921;BME280;5513;50.580;8.818;2022-11-15T03:49:52;98649.97;;;9.79;100.00
10921;BME280;5513;50.580;8.818;2022-11-15T03:52:21;98649.97;;;9.79;100.00
10921;BME280;5513;50.580;8.818;2022-11-15T03:54:52;98654.75;;;9.87;100.00
10921;BME280;5513;50.580;8.818;2022-11-15T03:57:23;98654.41;;;10.04;100.00
10921;BME280;5513;50.580;8.818;2022-11-15T03:59:51;98647.59;;;10.13;100.00
10921;BME280;5513;50.580;8.818;2022-11-15T04:02:20;98649.63;;;10.22;100.00
10921;BME280;5513;50.580;8.818;2022-11-15T04:04:50;98642.25;;;10.14;100.00
10921;BME280;5513;50.580;8.818;2022-11-15T04:07:18;98642.84;;;10.18;100.00
10921;BME280;5513;50.580;8.818;2022-11-15T04:09:49;98643.28;;;10.12;100.00
10921;BME280;5513;50.580;8.818;2022-11-15T04:12:35;98646.13;;;10.21;100.00
10921;BME280;5513;50.580;8.818;2022-11-15T04:15:06;98641.16;;;10.29;100.00
10921;BME280;5513;50.580;8.818;2022-11-15T04:17:39;98644.13;;;10.38;100.00
10921;BME280;5513;50.580;8.818;2022-11-15T04:20:12;98638.59;;;10.41;100.00
10921;BME280;5513;50.580;8.818;2022-11-15T04:22:55;98629.59;;;10.43;100.00
10921;BME280;5513;50.580;8.818;2022-11-15T04:25:41;98635.34;;;10.37;100.00
10921;BME280;5513;50.580;8.818;2022-11-15T04:28:10;98640.41;;;10.40;100.00
10921;BME280;5513;50.580;8.818;2022-11-15T04:30:38;98621.88;;;10.40;100.00
10921;BME280;5513;50.580;8.818;2022-11-15T04:33:06;98625.16;;;10.44;100.00
10921;BME280;5513;50.580;8.818;2022-11-15T04:35:37;98624.25;;;10.56;100.00
10921;BME280;5513;50.580;8.818;2022-11-15T04:38:07;98621.09;;;10.51;100.00
10921;BME280;5513;50.580;8.818;2022-11-15T04:40:37;98623.06;;;10.60;100.00
10921;BME280;5513;50.580;8.818;2022-11-15T04:43:08;98630.53;;;10.55;100.00
10921;BME280;5513;50.580;8.818;2022-11-15T04:45:36;98626.50;;;10.49;100.00
10921;BME280;5513;50.580;8.818;2022-11-15T04:48:05;98623.53;;;10.54;100.00
10921;BME280;5513;50.580;8.818;2022-11-15T04:50:33;98616.63;;;10.51;100.00
10921;BME280;5513;50.580;8.818;2022-11-15T04:53:04;98608.38;;;10.56;100.00
10921;BME280;5513;50.580;8.818;2022-11-15T04:55:32;98611.75;;;10.58;100.00
10921;BME280;5513;50.580;8.818;2022-11-15T04:58:02;98606.69;;;10.55;100.00
10921;BME280;5513;50.580;8.818;2022-11-15T05:00:31;98599.88;;;10.64;100.00
10921;BME280;5513;50.580;8.818;2022-11-15T05:02:59;98599.41;;;10.70;100.00
10921;BME280;5513;50.580;8.818;2022-11-15T05:05:44;98597.03;;;10.78;100.00
10921;BME280;5513;50.580;8.818;2022-11-15T05:08:14;98596.09;;;10.79;100.00
10921;BME280;5513;50.580;8.818;2022-11-15T05:10:43;98600.41;;;10.80;100.00
10921;BME280;5513;50.580;8.818;2022-11-15T05:13:11;98597.16;;;10.76;100.00
10921;BME280;5513;50.580;8.818;2022-11-15T05:15:39;98591.44;;;10.82;100.00
10921;BME280;5513;50.580;8.818;2022-11-15T05:18:08;98600.53;;;10.78;100.00
10921;BME280;5513;50.580;8.818;2022-11-15T05:20:36;98601.50;;;10.77;100.00
10921;BME280;5513;50.580;8.818;2022-11-15T05:23:08;98595.06;;;10.69;100.00
10921;BME280;5513;50.580;8.818;2022-11-15T05:25:38;98589.16;;;10.65;100.00
10921;BME280;5513;50.580;8.818;2022-11-15T05:28:07;98583.50;;;10.70;100.00
10921;BME280;5513;50.580;8.818;2022-11-15T05:30:35;98587.00;;;10.70;100.00
10921;BME280;5513;50.580;8.818;2022-11-15T05:33:05;98584.34;;;10.70;100.00
10921;BME280;5513;50.580;8.818;2022-11-15T05:35:38;98580.25;;;10.66;100.00
10921;BME280;5513;50.580;8.818;2022-11-15T05:38:08;98577.22;;;10.59;100.00
10921;BME280;5513;50.580;8.818;2022-11-15T05:40:38;98568.25;;;10.49;100.00
10921;BME280;5513;50.580;8.818;2022-11-15T05:43:06;98566.28;;;10.40;100.00
10921;BME280;5513;50.580;8.818;2022-11-15T05:45:38;98569.75;;;10.41;100.00
10921;BME280;5513;50.580;8.818;2022-11-15T05:48:08;98564.59;;;10.39;100.00
10921;BME280;5513;50.580;8.818;2022-11-15T05:50:40;98558.88;;;10.32;100.00
10921;BME280;5513;50.580;8.818;2022-11-15T05:53:10;98553.81;;;10.29;100.00
10921;BME280;5513;50.580;8.818;2022-11-15T05:55:45;98564.53;;;10.28;100.00
10921;BME280;5513;50.580;8.818;2022-11-15T05:58:14;98562.50;;;10.19;100.00
10921;BME280;5513;50.580;8.818;2022-11-15T06:00:49;98565.13;;;10.31;100.00
10921;BME280;5513;50.580;8.818;2022-11-15T06:03:18;98564.06;;;10.21;100.00
10921;BME280;5513;50.580;8.818;2022-11-15T06:05:47;98572.81;;;10.23;100.00
10921;BME280;5513;50.580;8.818;2022-11-15T06:08:15;98564.13;;;10.09;100.00
10921;BME280;5513;50.580;8.818;2022-11-15T06:10:45;98567.50;;;10.11;100.00
10921;BME280;5513;50.580;8.818;2022-11-15T06:13:14;98580.84;;;10.09;100.00
10921;BME280;5513;50.580;8.818;2022-11-15T06:15:43;98587.81;;;10.10;100.00
10921;BME280;5513;50.580;8.818;2022-11-15T06:18:11;98594.72;;;10.00;100.00
10921;BME280;5513;50.580;8.818;2022-11-15T06:20:39;98592.69;;;10.03;100.00
10921;BME280;5513;50.580;8.818;2022-11-15T06:23:07;98600.97;;;9.99;100.00
10921;BME280;5513;50.580;8.818;2022-11-15T06:25:36;98593.66;;;10.02;100.00
10921;BME280;5513;50.580;8.818;2022-11-15T06:28:06;98590.28;;;10.00;100.00
10921;BME280;5513;50.580;8.818;2022-11-15T06:30:34;98597.78;;;10.07;100.00
10921;BME280;5513;50.580;8.818;2022-11-15T06:33:04;98596.72;;;10.09;100.00
10921;BME280;5513;50.580;8.818;2022-11-15T06:35:33;98584.44;;;10.08;100.00
10921;BME280;5513;50.580;8.818;2022-11-15T06:38:03;98593.00;;;10.12;100.00
10921;BME280;5513;50.580;8.818;2022-11-15T06:40:34;98602.84;;;10.10;100.00
10921;BME280;5513;50.580;8.818;2022-11-15T06:43:03;98584.09;;;10.13;100.00
10921;BME280;5513;50.580;8.818;2022-11-15T06:45:33;98594.84;;;9.98;100.00
10921;BME280;5513;50.580;8.818;2022-11-15T06:48:02;98602.00;;;10.09;100.00
10921;BME280;5513;50.580;8.818;2022-11-15T06:50:30;98602.44;;;10.03;100.00
10921;BME280;5513;50.580;8.818;2022-11-15T06:53:01;98605.38;;;10.11;100.00
10921;BME280;5513;50.580;8.818;2022-11-15T06:55:29;98606.88;;;10.15;100.00
10921;BME280;5513;50.580;8.818;2022-11-15T06:57:58;98607.31;;;10.09;100.00
10921;BME280;5513;50.580;8.818;2022-11-15T07:00:26;98611.53;;;10.12;100.00
10921;BME280;5513;50.580;8.818;2022-11-15T07:02:59;98619.16;;;10.16;100.00
10921;BME280;5513;50.580;8.818;2022-11-15T07:05:28;98627.41;;;10.12;100.00
10921;BME280;5513;50.580;8.818;2022-11-15T07:07:57;98627.84;;;10.06;100.00
10921;BME280;5513;50.580;8.818;2022-11-15T07:10:27;98631.66;;;10.14;100.00
10921;BME280;5513;50.580;8.818;2022-11-15T07:12:57;98633.44;;;10.01;100.00
10921;BME280;5513;50.580;8.818;2022-11-15T07:15:25;98637.47;;;10.07;100.00
10921;BME280;5513;50.580;8.818;2022-11-15T07:17:54;98621.91;;;10.02;100.00
10921;BME280;5513;50.580;8.818;2022-11-15T07:20:23;98620.94;;;10.03;100.00
10921;BME280;5513;50.580;8.818;2022-11-15T07:22:59;98614.19;;;10.24;100.00
10921;BME280;5513;50.580;8.818;2022-11-15T07:25:27;98616.69;;;10.13;100.00
10921;BME280;5513;50.580;8.818;2022-11-15T07:27:56;98611.09;;;10.18;100.00
10921;BME280;5513;50.580;8.818;2022-11-15T07:30:26;98599.66;;;10.17;100.00
10921;BME280;5513;50.580;8.818;2022-11-15T07:32:55;98609.63;;;10.01;100.00
10921;BME280;5513;50.580;8.818;2022-11-15T07:35:26;98624.25;;;10.07;100.00
10921;BME280;5513;50.580;8.818;2022-11-15T07:37:56;98621.50;;;10.08;100.00
10921;BME280;5513;50.580;8.818;2022-11-15T07:40:27;98621.91;;;10.15;100.00
10921;BME280;5513;50.580;8.818;2022-11-15T07:42:59;98630.34;;;10.20;100.00
10921;BME280;5513;50.580;8.818;2022-11-15T07:45:27;98627.22;;;10.15;100.00
10921;BME280;5513;50.580;8.818;2022-11-15T07:47:55;98623.06;;;10.36;100.00
10921;BME280;5513;50.580;8.818;2022-11-15T07:50:26;98626.19;;;10.41;100.00
10921;BME280;5513;50.580;8.818;2022-11-15T07:52:57;98627.03;;;10.42;100.00
10921;BME280;5513;50.580;8.818;2022-11-15T07:55:27;98620.47;;;10.47;100.00
10921;BME280;5513;50.580;8.818;2022-11-15T07:58:00;98611.13;;;10.54;100.00
10921;BME280;5513;50.580;8.818;2022-11-15T08:00:30;98615.13;;;10.60;100.00
10921;BME280;5513;50.580;8.818;2022-11-15T08:03:03;98617.03;;;10.58;100.00
10921;BME280;5513;50.580;8.818;2022-11-15T08:05:34;98607.09;;;10.62;100.00
10921;BME280;5513;50.580;8.818;2022-11-15T08:08:04;98612.22;;;10.76;100.00
10921;BME280;5513;50.580;8.818;2022-11-15T08:10:33;98607.28;;;10.71;100.00
10921;BME280;5513;50.580;8.818;2022-11-15T08:13:09;98598.63;;;10.80;100.00
10921;BME280;5513;50.580;8.818;2022-11-15T08:15:39;98606.34;;;10.83;100.00
10921;BME280;5513;50.580;8.818;2022-11-15T08:18:10;98591.19;;;10.85;100.00
10921;BME280;5513;50.580;8.818;2022-11-15T08:20:41;98591.72;;;10.91;100.00
10921;BME280;5513;50.580;8.818;2022-11-15T08:23:11;98581.72;;;10.94;100.00
10921;BME280;5513;50.580;8.818;2022-11-15T08:25:39;98582.00;;;11.02;100.00
10921;BME280;5513;50.580;8.818;2022-11-15T08:28:09;98590.50;;;10.95;100.00
10921;BME280;5513;50.580;8.818;2022-11-15T08:30:39;98588.34;;;11.00;100.00
10921;BME280;5513;50.580;8.818;2022-11-15T08:33:11;98587.06;;;11.05;100.00
10921;BME280;5513;50.580;8.818;2022-11-15T08:35:42;98577.84;;;10.98;100.00
10921;BME280;5513;50.580;8.818;2022-11-15T08:38:11;98564.84;;;10.95;100.00
10921;BME280;5513;50.580;8.818;2022-11-15T08:40:40;98576.59;;;11.15;100.00
10921;BME280;5513;50.580;8.818;2022-11-15T08:43:08;98573.69;;;11.18;100.00
10921;BME280;5513;50.580;8.818;2022-11-15T08:45:37;98571.31;;;11.26;100.00
10921;BME280;5513;50.580;8.818;2022-11-15T08:48:05;98574.13;;;11.36;100.00
10921;BME280;5513;50.580;8.818;2022-11-15T08:50:34;98568.47;;;11.29;100.00
10921;BME280;5513;50.580;8.818;2022-11-15T08:53:07;98568.47;;;11.29;100.00
10921;BME280;5513;50.580;8.818;2022-11-15T08:55:37;98561.69;;;11.36;100.00
10921;BME280;5513;50.580;8.818;2022-11-15T08:58:08;98569.53;;;11.38;100.00
10921;BME280;5513;50.580;8.818;2022-11-15T09:00:38;98570.50;;;11.37;100.00
10921;BME280;5513;50.580;8.818;2022-11-15T09:03:06;98564.22;;;11.38;100.00
10921;BME280;5513;50.580;8.818;2022-11-15T09:05:36;98566.88;;;11.38;100.00
10921;BME280;5513;50.580;8.818;2022-11-15T09:08:06;98568.75;;;11.60;100.00
10921;BME280;5513;50.580;8.818;2022-11-15T09:10:55;98565.47;;;11.56;100.00
10921;BME280;5513;50.580;8.818;2022-11-15T09:13:23;98561.38;;;11.63;100.00
10921;BME280;5513;50.580;8.818;2022-11-15T09:15:52;98562.81;;;11.67;100.00
10921;BME280;5513;50.580;8.818;2022-11-15T09:18:22;98561.75;;;11.59;100.00
10921;BME280;5513;50.580;8.818;2022-11-15T09:20:50;98555.47;;;11.60;100.00
10921;BME280;5513;50.580;8.818;2022-11-15T09:23:20;98548.25;;;11.73;100.00
10921;BME280;5513;50.580;8.818;2022-11-15T09:25:49;98549.59;;;11.79;100.00
10921;BME280;5513;50.580;8.818;2022-11-15T09:28:17;98557.56;;;11.90;100.00
10921;BME280;5513;50.580;8.818;2022-11-15T09:30:46;98558.38;;;11.79;100.00
10921;BME280;5513;50.580;8.818;2022-11-15T09:33:14;98562.88;;;11.90;100.00
10921;BME280;5513;50.580;8.818;2022-11-15T09:35:45;98555.88;;;12.00;100.00
10921;BME280;5513;50.580;8.818;2022-11-15T09:38:13;98561.19;;;12.00;100.00
10921;BME280;5513;50.580;8.818;2022-11-15T09:40:45;98554.31;;;11.97;100.00
10921;BME280;5513;50.580;8.818;2022-11-15T09:43:38;98562.59;;;12.15;100.00
10921;BME280;5513;50.580;8.818;2022-11-15T09:46:15;98554.84;;;12.35;100.00
10921;BME280;5513;50.580;8.818;2022-11-15T09:48:52;98559.81;;;12.28;100.00
10921;BME280;5513;50.580;8.818;2022-11-15T09:51:25;98552.81;;;12.27;100.00
10921;BME280;5513;50.580;8.818;2022-11-15T09:54:04;98549.06;;;12.29;100.00
10921;BME280;5513;50.580;8.818;2022-11-15T09:56:55;98540.03;;;12.21;100.00
10921;BME280;5513;50.580;8.818;2022-11-15T09:59:49;98545.81;;;12.26;100.00
10921;BME280;5513;50.580;8.818;2022-11-15T10:02:41;98534.81;;;12.30;100.00
10921;BME280;5513;50.580;8.818;2022-11-15T10:05:14;98533.22;;;12.39;100.00
10921;BME280;5513;50.580;8.818;2022-11-15T10:07:50;98524.56;;;12.37;100.00
10921;BME280;5513;50.580;8.818;2022-11-15T10:10:27;98519.72;;;12.31;100.00
10921;BME280;5513;50.580;8.818;2022-11-15T10:13:12;98521.28;;;12.33;100.00
10921;BME280;5513;50.580;8.818;2022-11-15T10:15:44;98513.97;;;12.26;100.00
10921;BME280;5513;50.580;8.818;2022-11-15T10:18:16;98505.13;;;12.37;100.00
10921;BME280;5513;50.580;8.818;2022-11-15T10:20:48;98504.19;;;12.58;100.00
10921;BME280;5513;50.580;8.818;2022-11-15T10:23:19;98494.75;;;12.66;100.00
10921;BME280;5513;50.580;8.818;2022-11-15T10:25:51;98490.72;;;12.71;100.00
10921;BME280;5513;50.580;8.818;2022-11-15T10:28:26;98485.34;;;12.82;100.00
10921;BME280;5513;50.580;8.818;2022-11-15T10:30:57;98487.84;;;12.63;100.00
10921;BME280;5513;50.580;8.818;2022-11-15T10:33:31;98485.66;;;12.68;100.00
10921;BME280;5513;50.580;8.818;2022-11-15T10:36:21;98485.66;;;12.68;100.00
10921;BME280;5513;50.580;8.818;2022-11-15T10:38:56;98488.19;;;12.70;100.00
10921;BME280;5513;50.580;8.818;2022-11-15T10:41:35;98477.50;;;12.81;100.00
10921;BME280;5513;50.580;8.818;2022-11-15T10:44:28;98478.41;;;12.70;100.00
10921;BME280;5513;50.580;8.818;2022-11-15T10:47:21;98468.56;;;12.82;100.00
10921;BME280;5513;50.580;8.818;2022-11-15T10:49:55;98473.56;;;12.75;100.00
10921;BME280;5513;50.580;8.818;2022-11-15T10:52:24;98477.31;;;12.73;100.00
10921;BME280;5513;50.580;8.818;2022-11-15T10:54:55;98472.66;;;12.86;100.00
10921;BME280;5513;50.580;8.818;2022-11-15T10:57:26;98477.34;;;12.61;100.00
10921;BME280;5513;50.580;8.818;2022-11-15T10:59:59;98464.56;;;12.87;100.00
10921;BME280;5513;50.580;8.818;2022-11-15T11:02:31;98468.88;;;12.68;100.00
10921;BME280;5513;50.580;8.818;2022-11-15T11:05:02;98471.47;;;13.00;100.00
10921;BME280;5513;50.580;8.818;2022-11-15T11:07:33;98462.16;;;13.05;100.00
10921;BME280;5513;50.580;8.818;2022-11-15T11:10:17;98459.88;;;13.22;100.00
10921;BME280;5513;50.580;8.818;2022-11-15T11:13:13;98439.97;;;13.16;100.00
10921;BME280;5513;50.580;8.818;2022-11-15T11:15:46;98433.78;;;13.36;100.00
10921;BME280;5513;50.580;8.818;2022-11-15T11:18:25;98427.28;;;13.60;100.00
10921;BME280;5513;50.580;8.818;2022-11-15T11:20:58;98423.97;;;13.77;100.00
10921;BME280;5513;50.580;8.818;2022-11-15T11:23:45;98415.72;;;13.70;100.00
10921;BME280;5513;50.580;8.818;2022-11-15T11:26:35;98415.44;;;13.73;100.00
10921;BME280;5513;50.580;8.818;2022-11-15T11:29:20;98406.34;;;13.86;100.00
10921;BME280;5513;50.580;8.818;2022-11-15T11:31:58;98393.50;;;14.20;100.00
10921;BME280;5513;50.580;8.818;2022-11-15T11:34:43;98387.06;;;14.51;100.00
10921;BME280;5513;50.580;8.818;2022-11-15T11:37:20;98397.56;;;14.72;100.00
10921;BME280;5513;50.580;8.818;2022-11-15T11:40:04;98382.28;;;14.45;100.00
10921;BME280;5513;50.580;8.818;2022-11-15T11:42:44;98375.84;;;14.57;100.00
10921;BME280;5513;50.580;8.818;2022-11-15T11:45:22;98374.72;;;14.60;100.00
10921;BME280;5513;50.580;8.818;2022-11-15T11:47:59;98372.19;;;14.58;100.00
10921;BME280;5513;50.580;8.818;2022-11-15T11:50:31;98375.38;;;14.72;100.00
10921;BME280;5513;50.580;8.818;2022-11-15T11:53:04;98374.03;;;14.58;100.00
10921;BME280;5513;50.580;8.818;2022-11-15T11:55:38;98356.59;;;14.64;100.00
10921;BME280;5513;50.580;8.818;2022-11-15T11:58:14;98343.16;;;14.55;100.00
10921;BME280;5513;50.580;8.818;2022-11-15T12:00:49;98338.25;;;14.41;100.00
10921;BME280;5513;50.580;8.818;2022-11-15T12:03:25;98334.63;;;14.13;100.00
10921;BME280;5513;50.580;8.818;2022-11-15T12:05:59;98340.50;;;14.26;100.00
10921;BME280;5513;50.580;8.818;2022-11-15T12:08:47;98344.16;;;13.96;100.00
10921;BME280;5513;50.580;8.818;2022-11-15T12:11:21;98341.06;;;13.91;100.00
10921;BME280;5513;50.580;8.818;2022-11-15T12:13:57;98347.22;;;13.72;100.00
10921;BME280;5513;50.580;8.818;2022-11-15T12:16:28;98355.47;;;13.79;100.00
10921;BME280;5513;50.580;8.818;2022-11-15T12:19:04;98345.09;;;13.76;100.00
10921;BME280;5513;50.580;8.818;2022-11-15T12:21:36;98354.75;;;13.58;100.00
10921;BME280;5513;50.580;8.818;2022-11-15T12:24:13;98351.69;;;13.62;100.00
10921;BME280;5513;50.580;8.818;2022-11-15T12:26:49;98350.41;;;13.57;100.00
10921;BME280;5513;50.580;8.818;2022-11-15T12:29:25;98351.06;;;13.49;100.00
10921;BME280;5513;50.580;8.818;2022-11-15T12:31:58;98345.91;;;13.48;100.00
10921;BME280;5513;50.580;8.818;2022-11-15T12:34:37;98346.06;;;13.65;100.00
10921;BME280;5513;50.580;8.818;2022-11-15T12:40:29;98338.22;;;13.54;100.00
10921;BME280;5513;50.580;8.818;2022-11-15T12:45:53;98328.72;;;13.61;100.00
10921;BME280;5513;50.580;8.818;2022-11-15T12:48:52;98327.44;;;13.65;100.00
10921;BME280;5513;50.580;8.818;2022-11-15T12:55:00;98319.19;;;13.88;100.00
10921;BME280;5513;50.580;8.818;2022-11-15T12:57:34;98316.28;;;13.91;100.00
10921;BME280;5513;50.580;8.818;2022-11-15T13:06:07;98304.78;;;13.90;100.00
10921;BME280;5513;50.580;8.818;2022-11-15T13:08:43;98307.44;;;13.71;100.00
10921;BME280;5513;50.580;8.818;2022-11-15T13:11:49;98307.72;;;13.78;100.00
10921;BME280;5513;50.580;8.818;2022-11-15T13:14:47;98310.09;;;13.71;100.00
10921;BME280;5513;50.580;8.818;2022-11-15T13:17:28;98299.03;;;13.85;100.00
10921;BME280;5513;50.580;8.818;2022-11-15T13:20:14;98305.88;;;13.78;100.00
10921;BME280;5513;50.580;8.818;2022-11-15T13:22:46;98300.00;;;13.84;100.00
10921;BME280;5513;50.580;8.818;2022-11-15T13:28:37;98300.00;;;13.84;100.00
10921;BME280;5513;50.580;8.818;2022-11-15T13:34:02;98287.84;;;13.82;100.00
10921;BME280;5513;50.580;8.818;2022-11-15T13:36:52;98280.25;;;13.87;100.00
10921;BME280;5513;50.580;8.818;2022-11-15T13:39:27;98281.22;;;13.95;100.00
10921;BME280;5513;50.580;8.818;2022-11-15T13:41:56;98277.03;;;14.02;100.00
10921;BME280;5513;50.580;8.818;2022-11-15T13:44:27;98268.06;;;14.03;100.00
10921;BME280;5513;50.580;8.818;2022-11-15T13:47:05;98263.03;;;14.00;100.00
10921;BME280;5513;50.580;8.818;2022-11-15T13:49:34;98260.91;;;14.04;100.00
10921;BME280;5513;50.580;8.818;2022-11-15T13:52:06;98263.88;;;14.01;100.00
10921;BME280;5513;50.580;8.818;2022-11-15T13:54:38;98254.47;;;13.78;100.00
10921;BME280;5513;50.580;8.818;2022-11-15T13:57:13;98255.06;;;13.71;100.00
10921;BME280;5513;50.580;8.818;2022-11-15T13:59:48;98251.81;;;13.68;100.00